Henry Post Army Air Field (Fort Sill)
KFSI : now visible

Airfield :











YOU CAN JOIN US ON...

 
LOGIN :

Register | Disclaimer

   EN    FR    IT 

 









Legend :    VFR   Marginal VFR   IFR   Intensive IFR   Very Intensive IFR
Visi :
Ceiling :
>= 8 km
>= 3000ft
5 to 8 km
1000 to 3000 ft
1500m to 5 km
500 to 1000 ft
800 to 1500m
200 to 500 ft
< 800m
< 200 ft
Symbols :   Thunderstorms  Fog  Heavy snow  Heavy precipitations  Wind > 20 kt






- Airport Elevation : 1189 ft


KFSI - Henry Post Army Air Field (Fort Sill)

CURRENT METAR :
  • 191756Z AUTO 06007KT 10SM CLR 11/M03 A3034 RMK AO2 SLP277 T01101028 10110 21008

EXPIRED METARs :
  • 191656Z AUTO 07008KT 10SM CLR 09/M03 A3036 RMK AO2 SLP285 T00871026
  • 191556Z AUTO 06008KT 10SM CLR 06/M02 A3037 RMK AO2 SLP290 T00621022

TAF AMD TAF KFSI
Valid from the 19 at 14:00 until the 20 at 20:00 UTC


191430Z 1914/2020 03009KT 9999 SCT200 QNH3027INS
BECMG 1922/1923 VRB06KT 9000 -RA FEW050 QNH3027INS
BECMG 2007/2008 03009KT 9000 -RA OVC010 600108 QNH3040INS
BECMG 2011/2012 03010KT 9999 NSW BKN010 620108 QNH3048INS
BECMG 2015/2016 03015G20KT 9999 SCT010 OVC020 650204 510102 QNH3062INS TX09/1920Z TN00/1914Z



MET'MAP, your aeronautical weather chart ! - Copyright ORBIFLY December 2007 - Disclaimer

ORBIFLY MET'MAP TEAM :

Programming & Development : Alexandra Zaïnal
Concept & original design : Baudouin d'Aumeries
Assistance for programming : Marc-Olivier Méhu
Technical & hardware support : Manuel Goepfert

Contact : metmap@orbifly.com




SOURCES & CREDITS :

   NOAA       Earth
Advisory